Search for airport 
image banner adimage banner adimage banner ad
image banner ad

6K7 - Grundy Center Muni

Located in Grundy Center, United States

ICAO - 6K7, IATA -

Data provided by Airmate  

General information

Coordinates: N42°21'3" W92°50'37"
Elevation is 1075 feet MSL.
Magnetic variation is 03° East
View others Airports in Iowa

Operational data

Special qualification required
Current time UTC:
Current local time:
Weather at : KMIW - Marshalltown Muni ( 27 km )
METAR: KMIW 150953Z AUTO 32003KT 10SM CLR 12/09 A3009 RMK AO2 SLP184 T01220089
View NOTAMs / SUP AIP / TFR affecting this airport [VIEW]
Communications frequencies: [VIEW]

Runways:

RWY identifierQFULength (ft)Width (ft)SurfaceLDA (ft)
17225060GRASS
35225060GRASS

Airport contact information

Address: Grundy Center United States

Satellite view of 6K7